PWSweather.com
Personal Weather Stations
Station Observations
KMIEASTT1
Tawas Bay, East Tawas, MI 48730

Tawas BayEast Tawas, MI 48730

Lat: 44.28, Lon: -83.48

Elevation: 600

Station Type: Davis VantagePro

http://www.tawasbayweather.com

High Low Average
Temperature 10.2°F-12.1°C -4.6°F-20.3°C 2.0°F-16.7°C
Dew Point 1.8°F-16.8°C -10.5°F-23.6°C -5.0°F-20.6°C
Winds 29.0 mph 46.7 kmh Calm Calm 5.0 mph NW8.0 kmh NW
Wind Gusts 31.0 mph49.9 kmh -- 9.0 mph14.5 kmh
Humidity 84% 62% 72%
Pressure 30.26 in1024.7 mb 30.12 in1020.0 mb -
Precipitation 0.00 in0.0 mm - -
Hour Temp Dew Point Humidity Winds Wind Gusts Pressure Precip Precip Rate Daily Precip Total
12:00 AM 9.9°F-12.3°C 1.8°F-16.8°C 69% 6.0 mph NW9.7 kmh NW 7.0 mph11.3 kmh 30.12 in1020.0 mb 0.00 in0.0 mm 0.00 in0.0 mm 0.00 in0.0 mm
12:15 AM 9.6°F-12.4°C 1.5°F-16.9°C 69% 6.0 mph NW9.7 kmh NW 8.0 mph12.9 kmh 30.13 in1020.3 mb 0.00 in0.0 mm 0.00 in0.0 mm 0.00 in0.0 mm
12:30 AM 9.5°F-12.5°C 1.4°F-17.0°C 69% 2.0 mph NW3.2 kmh NW 7.0 mph11.3 kmh 30.13 in1020.3 mb 0.00 in0.0 mm 0.00 in0.0 mm 0.00 in0.0 mm
12:45 AM 9.1°F-12.7°C 1.0°F-17.2°C 69% 2.0 mph NW3.2 kmh NW 8.0 mph12.9 kmh 30.13 in1020.3 mb 0.00 in0.0 mm 0.00 in0.0 mm 0.00 in0.0 mm
01:00 AM 8.6°F-13.0°C 0.8°F-17.3°C 70% 5.0 mph WNW8.0 kmh WNW 7.0 mph11.3 kmh 30.14 in1020.7 mb 0.00 in0.0 mm 0.00 in0.0 mm 0.00 in0.0 mm
01:15 AM 10.2°F-12.1°C 1.8°F-16.8°C 68% 15.0 mph SE24.1 kmh SE 15.0 mph24.1 kmh 30.14 in1020.7 mb 0.00 in0.0 mm 0.00 in0.0 mm 0.00 in0.0 mm
01:30 AM 9.8°F-12.3°C 1.7°F-16.8°C 69% 12.0 mph ESE19.3 kmh ESE 15.0 mph24.1 kmh 30.15 in1021.0 mb 0.00 in0.0 mm 0.00 in0.0 mm 0.00 in0.0 mm
01:45 AM 9.4°F-12.6°C 1.6°F-16.9°C 70% 12.0 mph SE19.3 kmh SE 14.0 mph22.5 kmh 30.15 in1021.0 mb 0.00 in0.0 mm 0.00 in0.0 mm 0.00 in0.0 mm
02:00 AM 9.1°F-12.7°C 1.6°F-16.9°C 71% 13.0 mph SE20.9 kmh SE 15.0 mph24.1 kmh 30.16 in1021.3 mb 0.00 in0.0 mm 0.00 in0.0 mm 0.00 in0.0 mm
02:15 AM 8.7°F-12.9°C 1.5°F-16.9°C 72% 8.0 mph SE12.9 kmh SE 11.0 mph17.7 kmh 30.17 in1021.7 mb 0.00 in0.0 mm 0.00 in0.0 mm 0.00 in0.0 mm
02:30 AM 8.3°F-13.2°C 1.5°F-16.9°C 73% 9.0 mph SE14.5 kmh SE 10.0 mph16.1 kmh 30.17 in1021.7 mb 0.00 in0.0 mm 0.00 in0.0 mm 0.00 in0.0 mm
02:45 AM 7.8°F-13.4°C 1.3°F-17.1°C 74% 5.0 mph SE8.0 kmh SE 8.0 mph12.9 kmh 30.18 in1022.0 mb 0.00 in0.0 mm 0.00 in0.0 mm 0.00 in0.0 mm
03:00 AM 4.8°F-15.1°C -1.1°F-18.4°C 76% Calm Calm -- 30.19 in1022.4 mb 0.00 in0.0 mm 0.00 in0.0 mm 0.00 in0.0 mm
03:15 AM 4.0°F-15.6°C -1.3°F-18.5°C 78% Calm Calm 1.0 mph1.6 kmh 30.19 in1022.4 mb 0.00 in0.0 mm 0.00 in0.0 mm 0.00 in0.0 mm
03:30 AM 2.7°F-16.3°C -2.6°F-19.2°C 78% 2.0 mph NW3.2 kmh NW 2.0 mph3.2 kmh 30.19 in1022.4 mb 0.00 in0.0 mm 0.00 in0.0 mm 0.00 in0.0 mm
03:45 AM 2.4°F-16.4°C -1.8°F-18.8°C 82% 2.0 mph NW3.2 kmh NW 5.0 mph8.0 kmh 30.19 in1022.4 mb 0.00 in0.0 mm 0.00 in0.0 mm 0.00 in0.0 mm
04:00 AM 2.8°F-16.2°C -1.4°F-18.6°C 82% Calm Calm 2.0 mph3.2 kmh 30.20 in1022.7 mb 0.00 in0.0 mm 0.00 in0.0 mm 0.00 in0.0 mm
04:15 AM 2.3°F-16.5°C -1.9°F-18.8°C 82% 1.0 mph NW1.6 kmh NW 2.0 mph3.2 kmh 30.20 in1022.7 mb 0.00 in0.0 mm 0.00 in0.0 mm 0.00 in0.0 mm
04:30 AM 2.0°F-16.7°C -1.7°F-18.7°C 84% 3.0 mph NW4.8 kmh NW 7.0 mph11.3 kmh 30.20 in1022.7 mb 0.00 in0.0 mm 0.00 in0.0 mm 0.00 in0.0 mm
04:45 AM 2.3°F-16.5°C -1.7°F-18.7°C 83% 4.0 mph NW6.4 kmh NW 6.0 mph9.7 kmh 30.20 in1022.7 mb 0.00 in0.0 mm 0.00 in0.0 mm 0.00 in0.0 mm
05:00 AM 2.0°F-16.7°C -2.2°F-19.0°C 82% 4.0 mph NW6.4 kmh NW 4.0 mph6.4 kmh 30.20 in1022.7 mb 0.00 in0.0 mm 0.00 in0.0 mm 0.00 in0.0 mm
05:15 AM 1.9°F-16.7°C -2.3°F-19.1°C 82% 4.0 mph NW6.4 kmh NW 5.0 mph8.0 kmh 30.20 in1022.7 mb 0.00 in0.0 mm 0.00 in0.0 mm 0.00 in0.0 mm
05:30 AM 1.5°F-16.9°C -2.7°F-19.3°C 82% 4.0 mph NW6.4 kmh NW 6.0 mph9.7 kmh 30.20 in1022.7 mb 0.00 in0.0 mm 0.00 in0.0 mm 0.00 in0.0 mm
05:45 AM 1.5°F-16.9°C -2.7°F-19.3°C 82% 4.0 mph NNW6.4 kmh NNW 7.0 mph11.3 kmh 30.20 in1022.7 mb 0.00 in0.0 mm 0.00 in0.0 mm 0.00 in0.0 mm
06:00 AM 1.5°F-16.9°C -3.0°F-19.4°C 81% 3.0 mph NW4.8 kmh NW 10.0 mph16.1 kmh 30.19 in1022.4 mb 0.00 in0.0 mm 0.00 in0.0 mm 0.00 in0.0 mm
06:15 AM 1.3°F-17.1°C -3.4°F-19.7°C 80% 5.0 mph NW8.0 kmh NW 8.0 mph12.9 kmh 30.19 in1022.4 mb 0.00 in0.0 mm 0.00 in0.0 mm 0.00 in0.0 mm
06:30 AM 1.1°F-17.2°C -3.6°F-19.8°C 80% 4.0 mph NW6.4 kmh NW 9.0 mph14.5 kmh 30.19 in1022.4 mb 0.00 in0.0 mm 0.00 in0.0 mm 0.00 in0.0 mm
06:45 AM 0.9°F-17.3°C -4.1°F-20.1°C 79% 4.0 mph NW6.4 kmh NW 10.0 mph16.1 kmh 30.19 in1022.4 mb 0.00 in0.0 mm 0.00 in0.0 mm 0.00 in0.0 mm
07:00 AM 0.7°F-17.4°C -4.3°F-20.2°C 79% 5.0 mph NW8.0 kmh NW 8.0 mph12.9 kmh 30.19 in1022.4 mb 0.00 in0.0 mm 0.00 in0.0 mm 0.00 in0.0 mm
07:15 AM 0.5°F-17.5°C -4.7°F-20.4°C 78% 1.0 mph NW1.6 kmh NW 10.0 mph16.1 kmh 30.20 in1022.7 mb 0.00 in0.0 mm 0.00 in0.0 mm 0.00 in0.0 mm
07:30 AM 0.1°F-17.7°C -5.1°F-20.6°C 78% 4.0 mph NW6.4 kmh NW 10.0 mph16.1 kmh 30.20 in1022.7 mb 0.00 in0.0 mm 0.00 in0.0 mm 0.00 in0.0 mm
07:45 AM 0.1°F-17.7°C -5.2°F-20.7°C 78% 5.0 mph NW8.0 kmh NW 5.0 mph8.0 kmh 30.20 in1022.7 mb 0.00 in0.0 mm 0.00 in0.0 mm 0.00 in0.0 mm
08:00 AM -0.3°F-17.9°C -5.5°F-20.8°C 78% 3.0 mph NW4.8 kmh NW 8.0 mph12.9 kmh 30.21 in1023.0 mb 0.00 in0.0 mm 0.00 in0.0 mm 0.00 in0.0 mm
08:15 AM -0.5°F-18.1°C -5.7°F-20.9°C 78% 6.0 mph NNW9.7 kmh NNW 8.0 mph12.9 kmh 30.21 in1023.0 mb 0.00 in0.0 mm 0.00 in0.0 mm 0.00 in0.0 mm
08:30 AM -0.7°F-18.2°C -5.6°F-20.9°C 79% 4.0 mph NW6.4 kmh NW 8.0 mph12.9 kmh 30.21 in1023.0 mb 0.00 in0.0 mm 0.00 in0.0 mm 0.00 in0.0 mm
08:45 AM -0.5°F-18.1°C -5.7°F-20.9°C 78% 9.0 mph NW14.5 kmh NW 12.0 mph19.3 kmh 30.21 in1023.0 mb 0.00 in0.0 mm 0.00 in0.0 mm 0.00 in0.0 mm
09:00 AM -0.3°F-17.9°C -5.8°F-21.0°C 77% 6.0 mph NNW9.7 kmh NNW 11.0 mph17.7 kmh 30.22 in1023.4 mb 0.00 in0.0 mm 0.00 in0.0 mm 0.00 in0.0 mm
09:15 AM -0.1°F-17.8°C -5.6°F-20.9°C 77% 3.0 mph NW4.8 kmh NW 10.0 mph16.1 kmh 30.22 in1023.4 mb 0.00 in0.0 mm 0.00 in0.0 mm 0.00 in0.0 mm
09:30 AM 0.1°F-17.7°C -5.8°F-21.0°C 76% 7.0 mph NW11.3 kmh NW 11.0 mph17.7 kmh 30.22 in1023.4 mb 0.00 in0.0 mm 0.00 in0.0 mm 0.00 in0.0 mm
09:45 AM 0.5°F-17.5°C -5.5°F-20.8°C 75% 3.0 mph NW4.8 kmh NW 8.0 mph12.9 kmh 30.22 in1023.4 mb 0.00 in0.0 mm 0.00 in0.0 mm 0.00 in0.0 mm
10:00 AM 0.7°F-17.4°C -5.6°F-20.9°C 74% 4.0 mph NNW6.4 kmh NNW 10.0 mph16.1 kmh 30.22 in1023.4 mb 0.00 in0.0 mm 0.00 in0.0 mm 0.00 in0.0 mm
10:15 AM 0.8°F-17.3°C -5.5°F-20.8°C 74% 8.0 mph NW12.9 kmh NW 13.0 mph20.9 kmh 30.22 in1023.4 mb 0.00 in0.0 mm 0.00 in0.0 mm 0.00 in0.0 mm
10:30 AM 0.5°F-17.5°C -5.8°F-21.0°C 74% 29.0 mph SE46.7 kmh SE 31.0 mph49.9 kmh 30.23 in1023.7 mb 0.00 in0.0 mm 0.00 in0.0 mm 0.00 in0.0 mm
10:45 AM 0.8°F-17.3°C -5.8°F-21.0°C 73% 26.0 mph SE41.8 kmh SE 29.0 mph46.7 kmh 30.23 in1023.7 mb 0.00 in0.0 mm 0.00 in0.0 mm 0.00 in0.0 mm
11:00 AM 1.0°F-17.2°C -5.9°F-21.1°C 72% 22.0 mph SE35.4 kmh SE 30.0 mph48.3 kmh 30.23 in1023.7 mb 0.00 in0.0 mm 0.00 in0.0 mm 0.00 in0.0 mm
11:15 AM 2.7°F-16.3°C -4.8°F-20.4°C 70% 7.0 mph NNW11.3 kmh NNW 9.0 mph14.5 kmh 30.23 in1023.7 mb 0.00 in0.0 mm 0.00 in0.0 mm 0.00 in0.0 mm
11:30 AM 3.1°F-16.1°C -4.5°F-20.3°C 70% 4.0 mph NW6.4 kmh NW 12.0 mph19.3 kmh 30.22 in1023.4 mb 0.00 in0.0 mm 0.00 in0.0 mm 0.00 in0.0 mm
11:45 AM 3.7°F-15.7°C -3.9°F-19.9°C 70% 2.0 mph NW3.2 kmh NW 7.0 mph11.3 kmh 30.22 in1023.4 mb 0.00 in0.0 mm 0.00 in0.0 mm 0.00 in0.0 mm
12:02 PM 3.9°F-15.6°C -4.3°F-20.2°C 68% 4.0 mph NW6.4 kmh NW 12.0 mph19.3 kmh 30.21 in1023.0 mb 0.00 in0.0 mm 0.00 in0.0 mm 0.00 in0.0 mm
12:15 PM 4.3°F-15.4°C -3.9°F-19.9°C 68% 6.0 mph NNW9.7 kmh NNW 12.0 mph19.3 kmh 30.21 in1023.0 mb 0.00 in0.0 mm 0.00 in0.0 mm 0.00 in0.0 mm
12:30 PM 4.9°F-15.1°C -3.6°F-19.8°C 67% 6.0 mph NW9.7 kmh NW 12.0 mph19.3 kmh 30.20 in1022.7 mb 0.00 in0.0 mm 0.00 in0.0 mm 0.00 in0.0 mm
12:45 PM 5.1°F-14.9°C -3.8°F-19.9°C 66% 5.0 mph N8.0 kmh N 12.0 mph19.3 kmh 30.20 in1022.7 mb 0.00 in0.0 mm 0.00 in0.0 mm 0.00 in0.0 mm
01:00 PM 5.1°F-14.9°C -4.1°F-20.1°C 65% 10.0 mph NW16.1 kmh NW 13.0 mph20.9 kmh 30.20 in1022.7 mb 0.00 in0.0 mm 0.00 in0.0 mm 0.00 in0.0 mm
01:15 PM 5.6°F-14.7°C -3.6°F-19.8°C 65% 3.0 mph NNW4.8 kmh NNW 10.0 mph16.1 kmh 30.21 in1023.0 mb 0.00 in0.0 mm 0.00 in0.0 mm 0.00 in0.0 mm
01:30 PM 6.3°F-14.3°C -3.6°F-19.8°C 63% 7.0 mph NW11.3 kmh NW 11.0 mph17.7 kmh 30.21 in1023.0 mb 0.00 in0.0 mm 0.00 in0.0 mm 0.00 in0.0 mm
01:45 PM 6.1°F-14.4°C -3.8°F-19.9°C 63% 6.0 mph NW9.7 kmh NW 12.0 mph19.3 kmh 30.21 in1023.0 mb 0.00 in0.0 mm 0.00 in0.0 mm 0.00 in0.0 mm
02:00 PM 6.9°F-13.9°C -3.0°F-19.4°C 63% 9.0 mph NNW14.5 kmh NNW 10.0 mph16.1 kmh 30.22 in1023.4 mb 0.00 in0.0 mm 0.00 in0.0 mm 0.00 in0.0 mm
02:15 PM 5.9°F-14.5°C -4.0°F-20.0°C 63% 4.0 mph NW6.4 kmh NW 10.0 mph16.1 kmh 30.22 in1023.4 mb 0.00 in0.0 mm 0.00 in0.0 mm 0.00 in0.0 mm
02:30 PM 5.8°F-14.6°C -3.7°F-19.8°C 64% 3.0 mph N4.8 kmh N 12.0 mph19.3 kmh 30.22 in1023.4 mb 0.00 in0.0 mm 0.00 in0.0 mm 0.00 in0.0 mm
02:45 PM 5.5°F-14.7°C -4.4°F-20.2°C 63% 4.0 mph NW6.4 kmh NW 9.0 mph14.5 kmh 30.23 in1023.7 mb 0.00 in0.0 mm 0.00 in0.0 mm 0.00 in0.0 mm
03:00 PM 5.9°F-14.5°C -4.0°F-20.0°C 63% 8.0 mph NW12.9 kmh NW 9.0 mph14.5 kmh 30.22 in1023.4 mb 0.00 in0.0 mm 0.00 in0.0 mm 0.00 in0.0 mm
03:15 PM 5.0°F-15.0°C -4.8°F-20.4°C 63% 3.0 mph N4.8 kmh N 11.0 mph17.7 kmh 30.23 in1023.7 mb 0.00 in0.0 mm 0.00 in0.0 mm 0.00 in0.0 mm
03:30 PM 5.0°F-15.0°C -4.8°F-20.4°C 63% 7.0 mph NNW11.3 kmh NNW 8.0 mph12.9 kmh 30.23 in1023.7 mb 0.00 in0.0 mm 0.00 in0.0 mm 0.00 in0.0 mm
03:45 PM 4.8°F-15.1°C -5.0°F-20.6°C 63% 6.0 mph N9.7 kmh N 6.0 mph9.7 kmh 30.23 in1023.7 mb 0.00 in0.0 mm 0.00 in0.0 mm 0.00 in0.0 mm
04:00 PM 4.9°F-15.1°C -4.9°F-20.5°C 63% 4.0 mph NW6.4 kmh NW 8.0 mph12.9 kmh 30.23 in1023.7 mb 0.00 in0.0 mm 0.00 in0.0 mm 0.00 in0.0 mm
04:15 PM 4.0°F-15.6°C -6.1°F-21.2°C 62% 6.0 mph NNW9.7 kmh NNW 13.0 mph20.9 kmh 30.24 in1024.0 mb 0.00 in0.0 mm 0.00 in0.0 mm 0.00 in0.0 mm
04:30 PM 3.7°F-15.7°C -6.1°F-21.2°C 63% 6.0 mph NW9.7 kmh NW 7.0 mph11.3 kmh 30.24 in1024.0 mb 0.00 in0.0 mm 0.00 in0.0 mm 0.00 in0.0 mm
04:45 PM 2.9°F-16.2°C -6.5°F-21.4°C 64% 6.0 mph NW9.7 kmh NW 9.0 mph14.5 kmh 30.24 in1024.0 mb 0.00 in0.0 mm 0.00 in0.0 mm 0.00 in0.0 mm
05:00 PM 2.1°F-16.6°C -7.3°F-21.8°C 64% 4.0 mph NNW6.4 kmh NNW 9.0 mph14.5 kmh 30.24 in1024.0 mb 0.00 in0.0 mm 0.00 in0.0 mm 0.00 in0.0 mm
05:15 PM 1.2°F-17.1°C -7.8°F-22.1°C 65% 2.0 mph NNW3.2 kmh NNW 7.0 mph11.3 kmh 30.24 in1024.0 mb 0.00 in0.0 mm 0.00 in0.0 mm 0.00 in0.0 mm
05:30 PM 0.5°F-17.5°C -7.9°F-22.2°C 67% 4.0 mph NNW6.4 kmh NNW 5.0 mph8.0 kmh 30.24 in1024.0 mb 0.00 in0.0 mm 0.00 in0.0 mm 0.00 in0.0 mm
05:45 PM 0.1°F-17.7°C -8.3°F-22.4°C 67% 1.0 mph NW1.6 kmh NW 5.0 mph8.0 kmh 30.25 in1024.4 mb 0.00 in0.0 mm 0.00 in0.0 mm 0.00 in0.0 mm
06:00 PM -0.5°F-18.1°C -8.5°F-22.5°C 68% 1.0 mph NW1.6 kmh NW 5.0 mph8.0 kmh 30.25 in1024.4 mb 0.00 in0.0 mm 0.00 in0.0 mm 0.00 in0.0 mm
06:15 PM -0.9°F-18.3°C -9.2°F-22.9°C 67% 4.0 mph NW6.4 kmh NW 5.0 mph8.0 kmh 30.25 in1024.4 mb 0.00 in0.0 mm 0.00 in0.0 mm 0.00 in0.0 mm
06:30 PM -1.2°F-18.4°C -9.5°F-23.1°C 67% 1.0 mph N1.6 kmh N 5.0 mph8.0 kmh 30.25 in1024.4 mb 0.00 in0.0 mm 0.00 in0.0 mm 0.00 in0.0 mm
06:45 PM -1.6°F-18.7°C -9.9°F-23.3°C 67% 2.0 mph NNW3.2 kmh NNW 3.0 mph4.8 kmh 30.25 in1024.4 mb 0.00 in0.0 mm 0.00 in0.0 mm 0.00 in0.0 mm
07:00 PM -1.9°F-18.8°C -9.9°F-23.3°C 68% Calm Calm 1.0 mph1.6 kmh 30.25 in1024.4 mb 0.00 in0.0 mm 0.00 in0.0 mm 0.00 in0.0 mm
07:15 PM -2.3°F-19.1°C -10.0°F-23.3°C 69% 1.0 mph NNW1.6 kmh NNW 3.0 mph4.8 kmh 30.25 in1024.4 mb 0.00 in0.0 mm 0.00 in0.0 mm 0.00 in0.0 mm
07:30 PM -2.7°F-19.3°C -10.3°F-23.5°C 69% 1.0 mph NNW1.6 kmh NNW 2.0 mph3.2 kmh 30.26 in1024.7 mb 0.00 in0.0 mm 0.00 in0.0 mm 0.00 in0.0 mm
07:45 PM -2.9°F-19.4°C -10.5°F-23.6°C 69% 1.0 mph NW1.6 kmh NW 6.0 mph9.7 kmh 30.25 in1024.4 mb 0.00 in0.0 mm 0.00 in0.0 mm 0.00 in0.0 mm
08:00 PM -2.8°F-19.3°C -10.1°F-23.4°C 70% 3.0 mph NW4.8 kmh NW 4.0 mph6.4 kmh 30.25 in1024.4 mb 0.00 in0.0 mm 0.00 in0.0 mm 0.00 in0.0 mm
08:15 PM -2.8°F-19.3°C -10.1°F-23.4°C 70% 2.0 mph NNW3.2 kmh NNW 3.0 mph4.8 kmh 30.25 in1024.4 mb 0.00 in0.0 mm 0.00 in0.0 mm 0.00 in0.0 mm
08:30 PM -2.9°F-19.4°C -10.0°F-23.3°C 71% 1.0 mph NW1.6 kmh NW 3.0 mph4.8 kmh 30.25 in1024.4 mb 0.00 in0.0 mm 0.00 in0.0 mm 0.00 in0.0 mm
08:45 PM -3.2°F-19.6°C -10.0°F-23.3°C 72% Calm Calm 4.0 mph6.4 kmh 30.25 in1024.4 mb 0.00 in0.0 mm 0.00 in0.0 mm 0.00 in0.0 mm
09:00 PM -3.6°F-19.8°C -10.4°F-23.6°C 72% 1.0 mph NW1.6 kmh NW 2.0 mph3.2 kmh 30.25 in1024.4 mb 0.00 in0.0 mm 0.00 in0.0 mm 0.00 in0.0 mm
09:15 PM -3.7°F-19.8°C -10.2°F-23.4°C 73% 1.0 mph NW1.6 kmh NW 3.0 mph4.8 kmh 30.25 in1024.4 mb 0.00 in0.0 mm 0.00 in0.0 mm 0.00 in0.0 mm
09:30 PM -3.9°F-19.9°C -10.1°F-23.4°C 74% 2.0 mph WNW3.2 kmh WNW 4.0 mph6.4 kmh 30.25 in1024.4 mb 0.00 in0.0 mm 0.00 in0.0 mm 0.00 in0.0 mm
09:45 PM -4.3°F-20.2°C -10.5°F-23.6°C 74% 2.0 mph WNW3.2 kmh WNW 5.0 mph8.0 kmh 30.25 in1024.4 mb 0.00 in0.0 mm 0.00 in0.0 mm 0.00 in0.0 mm
10:00 PM -4.6°F-20.3°C -10.5°F-23.6°C 75% 2.0 mph WNW3.2 kmh WNW 4.0 mph6.4 kmh 30.24 in1024.0 mb 0.00 in0.0 mm 0.00 in0.0 mm 0.00 in0.0 mm
10:15 PM -2.0°F-18.9°C -8.2°F-22.3°C 74% 14.0 mph ESE22.5 kmh ESE 17.0 mph27.4 kmh 30.24 in1024.0 mb 0.00 in0.0 mm 0.00 in0.0 mm 0.00 in0.0 mm
10:30 PM -4.5°F-20.3°C -10.1°F-23.4°C 76% 6.0 mph NW9.7 kmh NW 7.0 mph11.3 kmh 30.24 in1024.0 mb 0.00 in0.0 mm 0.00 in0.0 mm 0.00 in0.0 mm
10:45 PM -4.4°F-20.2°C -10.0°F-23.3°C 76% 4.0 mph NW6.4 kmh NW 10.0 mph16.1 kmh 30.24 in1024.0 mb 0.00 in0.0 mm 0.00 in0.0 mm 0.00 in0.0 mm
11:00 PM -4.3°F-20.2°C -9.7°F-23.2°C 77% 3.0 mph NW4.8 kmh NW 8.0 mph12.9 kmh 30.24 in1024.0 mb 0.00 in0.0 mm 0.00 in0.0 mm 0.00 in0.0 mm
11:15 PM -4.1°F-20.1°C -9.5°F-23.1°C 77% 3.0 mph NW4.8 kmh NW 10.0 mph16.1 kmh 30.24 in1024.0 mb 0.00 in0.0 mm 0.00 in0.0 mm 0.00 in0.0 mm
11:30 PM -4.1°F-20.1°C -9.2°F-22.9°C 78% 4.0 mph NW6.4 kmh NW 11.0 mph17.7 kmh 30.25 in1024.4 mb 0.00 in0.0 mm 0.00 in0.0 mm 0.00 in0.0 mm
11:45 PM -4.1°F-20.1°C -9.2°F-22.9°C 78% 5.0 mph NW8.0 kmh NW 9.0 mph14.5 kmh 30.25 in1024.4 mb 0.00 in0.0 mm 0.00 in0.0 mm 0.00 in0.0 mm